De Haan, Belgium
Current Conditions -  °F | °C
As of 12:50 PM on Monday 22 Dec 2014 (Local Time) from EBOS Reporting Station
Broken Clouds Broken Clouds  
Wind Chill: 12°   Ceiling: 1600
Heat Index: 12°   Visibility: 6mi
Dew Point: 10°   Wind: 26mph
Humidity: 88%   Direction: 250°WSW
Pressure: 30.09"   Gusts: 38mph
Location:  51.27°N, 3.03°E
Report Text: EBOS 221150Z 25023G33KT 9999 BKN016 12/10 Q1019 NOSIG
Loading
Personal Weather Stations






























Interactive Weather Map New forecast layout! Learn more

10-Day Weather Forecast

Advertisements
Track Severe Weather on mobile